sensor_id;sensor_type;location;lat;lon;timestamp;temperature;humidity
41953;DHT22;63613;28.200;112.870;2023-07-20T00:02:03;30.80;70.40
41953;DHT22;63613;28.200;112.870;2023-07-20T00:04:31;30.70;70.40
41953;DHT22;63613;28.200;112.870;2023-07-20T00:06:58;30.80;70.30
41953;DHT22;63613;28.200;112.870;2023-07-20T00:09:28;30.80;70.30
41953;DHT22;63613;28.200;112.870;2023-07-20T00:11:55;30.80;70.30
41953;DHT22;63613;28.200;112.870;2023-07-20T00:14:22;30.80;70.30
41953;DHT22;63613;28.200;112.870;2023-07-20T00:16:50;30.80;70.30
41953;DHT22;63613;28.200;112.870;2023-07-20T00:19:25;30.80;70.30
41953;DHT22;63613;28.200;112.870;2023-07-20T00:21:52;30.80;70.30
41953;DHT22;63613;28.200;112.870;2023-07-20T00:24:19;30.80;70.30
41953;DHT22;63613;28.200;112.870;2023-07-20T00:26:46;30.90;70.30
41953;DHT22;63613;28.200;112.870;2023-07-20T00:29:13;30.90;70.20
41953;DHT22;63613;28.200;112.870;2023-07-20T00:31:40;30.90;70.10
41953;DHT22;63613;28.200;112.870;2023-07-20T00:34:07;30.90;69.90
41953;DHT22;63613;28.200;112.870;2023-07-20T00:36:34;31.00;69.80
41953;DHT22;63613;28.200;112.870;2023-07-20T00:39:00;31.10;69.70
41953;DHT22;63613;28.200;112.870;2023-07-20T00:41:27;31.10;69.60
41953;DHT22;63613;28.200;112.870;2023-07-20T00:43:55;31.10;69.50
41953;DHT22;63613;28.200;112.870;2023-07-20T00:46:23;31.10;69.40
41953;DHT22;63613;28.200;112.870;2023-07-20T00:48:51;31.10;69.50
41953;DHT22;63613;28.200;112.870;2023-07-20T00:51:21;31.10;69.40
41953;DHT22;63613;28.200;112.870;2023-07-20T00:53:48;31.20;69.30
41953;DHT22;63613;28.200;112.870;2023-07-20T00:56:15;31.20;69.30
41953;DHT22;63613;28.200;112.870;2023-07-20T00:58:42;31.20;69.20
41953;DHT22;63613;28.200;112.870;2023-07-20T01:01:09;31.20;69.20
41953;DHT22;63613;28.200;112.870;2023-07-20T01:03:36;31.20;69.10
41953;DHT22;63613;28.200;112.870;2023-07-20T01:06:36;31.20;69.00
41953;DHT22;63613;28.200;112.870;2023-07-20T01:14:25;31.20;68.80
41953;DHT22;63613;28.200;112.870;2023-07-20T01:16:52;31.20;68.80
41953;DHT22;63613;28.200;112.870;2023-07-20T01:19:19;31.20;69.00
41953;DHT22;63613;28.200;112.870;2023-07-20T01:30:42;31.40;69.10
41953;DHT22;63613;28.200;112.870;2023-07-20T01:33:15;31.40;68.90
41953;DHT22;63613;28.200;112.870;2023-07-20T01:35:43;31.40;68.90
41953;DHT22;63613;28.200;112.870;2023-07-20T01:38:15;31.40;68.70
41953;DHT22;63613;28.200;112.870;2023-07-20T01:40:44;31.40;68.60
41953;DHT22;63613;28.200;112.870;2023-07-20T01:43:12;31.50;68.70
41953;DHT22;63613;28.200;112.870;2023-07-20T01:45:41;31.50;68.60
41953;DHT22;63613;28.200;112.870;2023-07-20T01:48:08;31.50;68.60
41953;DHT22;63613;28.200;112.870;2023-07-20T01:50:35;31.50;68.50
41953;DHT22;63613;28.200;112.870;2023-07-20T01:53:02;31.50;68.40
41953;DHT22;63613;28.200;112.870;2023-07-20T01:55:29;31.50;68.70
41953;DHT22;63613;28.200;112.870;2023-07-20T01:57:56;31.50;68.90
41953;DHT22;63613;28.200;112.870;2023-07-20T02:00:23;31.60;69.00
41953;DHT22;63613;28.200;112.870;2023-07-20T02:02:51;31.50;69.30
41953;DHT22;63613;28.200;112.870;2023-07-20T02:05:18;31.50;69.40
41953;DHT22;63613;28.200;112.870;2023-07-20T02:07:45;31.50;69.50
41953;DHT22;63613;28.200;112.870;2023-07-20T02:10:12;31.50;69.40
41953;DHT22;63613;28.200;112.870;2023-07-20T02:12:39;31.60;69.20
41953;DHT22;63613;28.200;112.870;2023-07-20T02:15:06;31.60;69.10
41953;DHT22;63613;28.200;112.870;2023-07-20T02:17:33;31.70;69.00
41953;DHT22;63613;28.200;112.870;2023-07-20T02:20:00;31.70;68.90
41953;DHT22;63613;28.200;112.870;2023-07-20T02:22:27;31.70;68.90
41953;DHT22;63613;28.200;112.870;2023-07-20T02:24:54;31.70;68.80
41953;DHT22;63613;28.200;112.870;2023-07-20T02:27:20;31.70;68.80
41953;DHT22;63613;28.200;112.870;2023-07-20T02:29:49;31.70;68.90
41953;DHT22;63613;28.200;112.870;2023-07-20T02:32:16;31.70;68.90
41953;DHT22;63613;28.200;112.870;2023-07-20T02:34:43;31.70;68.90
41953;DHT22;63613;28.200;112.870;2023-07-20T02:37:11;31.70;68.70
41953;DHT22;63613;28.200;112.870;2023-07-20T02:39:39;31.70;68.50
41953;DHT22;63613;28.200;112.870;2023-07-20T02:42:07;31.80;68.20
41953;DHT22;63613;28.200;112.870;2023-07-20T02:44:54;31.80;67.90
41953;DHT22;63613;28.200;112.870;2023-07-20T02:47:21;31.90;68.00
41953;DHT22;63613;28.200;112.870;2023-07-20T02:49:47;31.80;68.10
41953;DHT22;63613;28.200;112.870;2023-07-20T02:52:14;31.80;68.00
41953;DHT22;63613;28.200;112.870;2023-07-20T02:54:41;31.90;67.70
41953;DHT22;63613;28.200;112.870;2023-07-20T02:57:08;32.00;67.60
41953;DHT22;63613;28.200;112.870;2023-07-20T02:59:35;32.00;67.60
41953;DHT22;63613;28.200;112.870;2023-07-20T03:02:05;32.00;67.50
41953;DHT22;63613;28.200;112.870;2023-07-20T03:04:35;32.00;67.50
41953;DHT22;63613;28.200;112.870;2023-07-20T03:07:05;32.00;67.50
41953;DHT22;63613;28.200;112.870;2023-07-20T03:09:33;32.10;67.50
41953;DHT22;63613;28.200;112.870;2023-07-20T03:12:00;32.10;67.30
41953;DHT22;63613;28.200;112.870;2023-07-20T03:14:27;32.10;67.20
41953;DHT22;63613;28.200;112.870;2023-07-20T03:16:55;32.10;67.20
41953;DHT22;63613;28.200;112.870;2023-07-20T03:19:22;32.10;67.10
41953;DHT22;63613;28.200;112.870;2023-07-20T03:21:50;32.10;67.10
41953;DHT22;63613;28.200;112.870;2023-07-20T03:24:17;32.10;66.90
41953;DHT22;63613;28.200;112.870;2023-07-20T03:26:44;32.10;66.80
41953;DHT22;63613;28.200;112.870;2023-07-20T03:29:23;32.10;66.80
41953;DHT22;63613;28.200;112.870;2023-07-20T03:31:50;32.00;66.70
41953;DHT22;63613;28.200;112.870;2023-07-20T03:34:17;32.00;67.00
41953;DHT22;63613;28.200;112.870;2023-07-20T03:36:44;32.10;67.10
41953;DHT22;63613;28.200;112.870;2023-07-20T03:39:10;32.20;66.90
41953;DHT22;63613;28.200;112.870;2023-07-20T03:41:37;32.20;66.80
41953;DHT22;63613;28.200;112.870;2023-07-20T03:44:25;32.20;66.70
41953;DHT22;63613;28.200;112.870;2023-07-20T03:46:51;32.20;66.70
41953;DHT22;63613;28.200;112.870;2023-07-20T03:49:18;32.20;66.70
41953;DHT22;63613;28.200;112.870;2023-07-20T03:51:45;32.30;66.70
41953;DHT22;63613;28.200;112.870;2023-07-20T03:54:12;32.30;66.60
41953;DHT22;63613;28.200;112.870;2023-07-20T03:56:39;32.30;66.80
41953;DHT22;63613;28.200;112.870;2023-07-20T03:59:05;32.30;67.00
41953;DHT22;63613;28.200;112.870;2023-07-20T04:01:32;32.30;67.00
41953;DHT22;63613;28.200;112.870;2023-07-20T04:04:07;32.40;67.00
41953;DHT22;63613;28.200;112.870;2023-07-20T04:06:34;32.40;67.00
41953;DHT22;63613;28.200;112.870;2023-07-20T04:09:02;32.50;66.90
41953;DHT22;63613;28.200;112.870;2023-07-20T04:11:29;32.50;66.90
41953;DHT22;63613;28.200;112.870;2023-07-20T04:13:56;32.40;66.80
41953;DHT22;63613;28.200;112.870;2023-07-20T04:16:23;32.50;66.80
41953;DHT22;63613;28.200;112.870;2023-07-20T04:18:50;32.40;66.80
41953;DHT22;63613;28.200;112.870;2023-07-20T04:21:18;32.40;66.90
41953;DHT22;63613;28.200;112.870;2023-07-20T04:23:45;32.50;66.70
41953;DHT22;63613;28.200;112.870;2023-07-20T04:26:12;32.50;66.80
41953;DHT22;63613;28.200;112.870;2023-07-20T04:28:39;32.50;66.90
41953;DHT22;63613;28.200;112.870;2023-07-20T04:31:15;32.50;67.00
41953;DHT22;63613;28.200;112.870;2023-07-20T04:33:43;32.50;67.00
41953;DHT22;63613;28.200;112.870;2023-07-20T04:36:10;32.60;66.80
41953;DHT22;63613;28.200;112.870;2023-07-20T04:38:38;32.60;66.80
41953;DHT22;63613;28.200;112.870;2023-07-20T04:41:05;32.70;66.70
41953;DHT22;63613;28.200;112.870;2023-07-20T04:43:32;32.70;66.50
41953;DHT22;63613;28.200;112.870;2023-07-20T04:45:59;32.70;66.60
41953;DHT22;63613;28.200;112.870;2023-07-20T04:48:26;32.60;66.60
41953;DHT22;63613;28.200;112.870;2023-07-20T04:50:53;32.70;66.60
41953;DHT22;63613;28.200;112.870;2023-07-20T04:53:19;32.70;66.50
41953;DHT22;63613;28.200;112.870;2023-07-20T04:55:50;32.70;66.40
41953;DHT22;63613;28.200;112.870;2023-07-20T04:58:19;32.70;66.30
41953;DHT22;63613;28.200;112.870;2023-07-20T05:00:47;32.80;66.30
41953;DHT22;63613;28.200;112.870;2023-07-20T05:03:14;32.80;66.30
41953;DHT22;63613;28.200;112.870;2023-07-20T05:05:41;32.80;66.20
41953;DHT22;63613;28.200;112.870;2023-07-20T05:08:28;32.80;66.20
41953;DHT22;63613;28.200;112.870;2023-07-20T05:10:55;32.80;66.10
41953;DHT22;63613;28.200;112.870;2023-07-20T05:13:22;32.80;66.10
41953;DHT22;63613;28.200;112.870;2023-07-20T05:15:52;32.80;65.90
41953;DHT22;63613;28.200;112.870;2023-07-20T05:18:22;32.80;66.10
41953;DHT22;63613;28.200;112.870;2023-07-20T05:20:50;32.70;66.10
41953;DHT22;63613;28.200;112.870;2023-07-20T05:23:19;32.80;66.20
41953;DHT22;63613;28.200;112.870;2023-07-20T05:25:54;32.80;66.10
41953;DHT22;63613;28.200;112.870;2023-07-20T05:28:22;32.90;66.00
41953;DHT22;63613;28.200;112.870;2023-07-20T05:30:51;32.80;66.10
41953;DHT22;63613;28.200;112.870;2023-07-20T05:33:22;32.80;66.20
41953;DHT22;63613;28.200;112.870;2023-07-20T05:35:52;32.80;66.10
41953;DHT22;63613;28.200;112.870;2023-07-20T05:38:19;32.90;66.00
41953;DHT22;63613;28.200;112.870;2023-07-20T05:40:46;32.90;65.90
41953;DHT22;63613;28.200;112.870;2023-07-20T05:43:13;32.90;65.90
41953;DHT22;63613;28.200;112.870;2023-07-20T05:45:45;32.90;65.70
41953;DHT22;63613;28.200;112.870;2023-07-20T05:48:13;32.90;65.70
41953;DHT22;63613;28.200;112.870;2023-07-20T05:50:43;32.90;65.60
41953;DHT22;63613;28.200;112.870;2023-07-20T05:53:10;32.90;65.50
41953;DHT22;63613;28.200;112.870;2023-07-20T05:55:39;32.90;65.50
41953;DHT22;63613;28.200;112.870;2023-07-20T05:58:07;32.90;65.40
41953;DHT22;63613;28.200;112.870;2023-07-20T06:00:34;32.90;65.40
41953;DHT22;63613;28.200;112.870;2023-07-20T06:03:00;32.90;65.20
41953;DHT22;63613;28.200;112.870;2023-07-20T06:05:27;32.90;65.00
41953;DHT22;63613;28.200;112.870;2023-07-20T06:08:14;33.00;64.90
41953;DHT22;63613;28.200;112.870;2023-07-20T06:10:41;33.00;64.80
41953;DHT22;63613;28.200;112.870;2023-07-20T06:13:08;33.00;64.70
41953;DHT22;63613;28.200;112.870;2023-07-20T06:15:35;33.00;64.70
41953;DHT22;63613;28.200;112.870;2023-07-20T06:18:03;33.10;64.60
41953;DHT22;63613;28.200;112.870;2023-07-20T06:20:30;33.00;64.50
41953;DHT22;63613;28.200;112.870;2023-07-20T06:22:57;33.00;64.50
41953;DHT22;63613;28.200;112.870;2023-07-20T06:25:27;33.00;64.50
41953;DHT22;63613;28.200;112.870;2023-07-20T06:27:55;33.10;64.40
41953;DHT22;63613;28.200;112.870;2023-07-20T06:30:23;33.20;64.40
41953;DHT22;63613;28.200;112.870;2023-07-20T06:32:51;33.20;64.40
41953;DHT22;63613;28.200;112.870;2023-07-20T06:35:20;33.20;64.50
41953;DHT22;63613;28.200;112.870;2023-07-20T06:37:48;33.20;64.50
41953;DHT22;63613;28.200;112.870;2023-07-20T06:40:17;33.20;64.40
41953;DHT22;63613;28.200;112.870;2023-07-20T06:42:47;33.20;64.40
41953;DHT22;63613;28.200;112.870;2023-07-20T06:45:13;33.20;64.40
41953;DHT22;63613;28.200;112.870;2023-07-20T06:47:41;33.20;64.40
41953;DHT22;63613;28.200;112.870;2023-07-20T06:50:08;33.20;64.20
41953;DHT22;63613;28.200;112.870;2023-07-20T06:52:36;33.20;64.10
41953;DHT22;63613;28.200;112.870;2023-07-20T06:55:03;33.20;64.10
41953;DHT22;63613;28.200;112.870;2023-07-20T06:57:30;33.20;64.20
41953;DHT22;63613;28.200;112.870;2023-07-20T06:59:57;33.20;64.20
41953;DHT22;63613;28.200;112.870;2023-07-20T07:02:24;33.20;64.10
41953;DHT22;63613;28.200;112.870;2023-07-20T07:04:52;33.20;64.10
41953;DHT22;63613;28.200;112.870;2023-07-20T07:07:20;33.10;64.10
41953;DHT22;63613;28.200;112.870;2023-07-20T07:09:47;33.10;64.10
41953;DHT22;63613;28.200;112.870;2023-07-20T07:12:36;33.10;64.00
41953;DHT22;63613;28.200;112.870;2023-07-20T07:15:05;33.10;64.00
41953;DHT22;63613;28.200;112.870;2023-07-20T07:17:39;33.10;63.90
41953;DHT22;63613;28.200;112.870;2023-07-20T07:20:09;33.00;63.90
41953;DHT22;63613;28.200;112.870;2023-07-20T07:22:36;33.00;64.00
41953;DHT22;63613;28.200;112.870;2023-07-20T07:25:12;33.00;64.00
41953;DHT22;63613;28.200;112.870;2023-07-20T07:27:39;33.00;64.00
41953;DHT22;63613;28.200;112.870;2023-07-20T07:30:06;32.90;64.10
41953;DHT22;63613;28.200;112.870;2023-07-20T07:32:33;32.90;64.10
41953;DHT22;63613;28.200;112.870;2023-07-20T07:35:00;32.90;64.20
41953;DHT22;63613;28.200;112.870;2023-07-20T07:37:27;32.90;64.20
41953;DHT22;63613;28.200;112.870;2023-07-20T07:39:55;32.90;64.20
41953;DHT22;63613;28.200;112.870;2023-07-20T07:42:26;32.90;64.20
41953;DHT22;63613;28.200;112.870;2023-07-20T07:44:57;32.80;64.20
41953;DHT22;63613;28.200;112.870;2023-07-20T07:47:27;32.80;64.30
41953;DHT22;63613;28.200;112.870;2023-07-20T07:50:15;32.80;64.40
41953;DHT22;63613;28.200;112.870;2023-07-20T07:52:45;32.80;64.70
41953;DHT22;63613;28.200;112.870;2023-07-20T07:55:12;32.80;64.90
41953;DHT22;63613;28.200;112.870;2023-07-20T07:57:39;32.80;65.10
41953;DHT22;63613;28.200;112.870;2023-07-20T08:00:10;32.70;65.40
41953;DHT22;63613;28.200;112.870;2023-07-20T08:02:41;32.70;65.70
41953;DHT22;63613;28.200;112.870;2023-07-20T08:05:11;32.70;65.90
41953;DHT22;63613;28.200;112.870;2023-07-20T08:07:41;32.70;66.00
41953;DHT22;63613;28.200;112.870;2023-07-20T08:10:31;32.70;66.10
41953;DHT22;63613;28.200;112.870;2023-07-20T08:13:18;32.70;66.20
41953;DHT22;63613;28.200;112.870;2023-07-20T08:15:49;32.60;66.50
41953;DHT22;63613;28.200;112.870;2023-07-20T08:18:34;32.60;66.90
41953;DHT22;63613;28.200;112.870;2023-07-20T08:21:01;32.60;67.80
41953;DHT22;63613;28.200;112.870;2023-07-20T08:23:29;32.50;68.00
41953;DHT22;63613;28.200;112.870;2023-07-20T08:25:56;32.50;68.00
41953;DHT22;63613;28.200;112.870;2023-07-20T08:28:22;32.40;68.10
41953;DHT22;63613;28.200;112.870;2023-07-20T08:30:51;32.40;68.00
41953;DHT22;63613;28.200;112.870;2023-07-20T08:33:24;32.40;67.80
41953;DHT22;63613;28.200;112.870;2023-07-20T08:35:56;32.40;67.60
41953;DHT22;63613;28.200;112.870;2023-07-20T08:38:29;32.30;67.30
41953;DHT22;63613;28.200;112.870;2023-07-20T08:41:00;32.30;67.10
41953;DHT22;63613;28.200;112.870;2023-07-20T08:43:28;32.30;66.70
41953;DHT22;63613;28.200;112.870;2023-07-20T08:45:55;32.30;66.30
41953;DHT22;63613;28.200;112.870;2023-07-20T08:48:24;32.20;65.90
41953;DHT22;63613;28.200;112.870;2023-07-20T08:50:52;32.20;65.70
41953;DHT22;63613;28.200;112.870;2023-07-20T08:53:23;32.20;65.70
41953;DHT22;63613;28.200;112.870;2023-07-20T08:55:52;32.20;65.60
41953;DHT22;63613;28.200;112.870;2023-07-20T08:58:20;32.20;65.60
41953;DHT22;63613;28.200;112.870;2023-07-20T09:00:48;32.20;65.70
41953;DHT22;63613;28.200;112.870;2023-07-20T09:03:16;32.20;65.70
41953;DHT22;63613;28.200;112.870;2023-07-20T09:05:44;32.20;65.70
41953;DHT22;63613;28.200;112.870;2023-07-20T09:08:12;32.20;65.60
41953;DHT22;63613;28.200;112.870;2023-07-20T09:10:38;32.20;65.60
41953;DHT22;63613;28.200;112.870;2023-07-20T09:13:15;32.20;65.60
41953;DHT22;63613;28.200;112.870;2023-07-20T09:15:52;32.20;65.60
41953;DHT22;63613;28.200;112.870;2023-07-20T09:18:30;32.20;65.60
41953;DHT22;63613;28.200;112.870;2023-07-20T09:21:05;32.20;65.50
41953;DHT22;63613;28.200;112.870;2023-07-20T09:23:36;32.20;65.50
41953;DHT22;63613;28.200;112.870;2023-07-20T09:26:11;32.10;65.50
41953;DHT22;63613;28.200;112.870;2023-07-20T09:28:43;32.10;65.60
41953;DHT22;63613;28.200;112.870;2023-07-20T09:31:20;32.10;65.60
41953;DHT22;63613;28.200;112.870;2023-07-20T09:34:08;32.20;65.60
41953;DHT22;63613;28.200;112.870;2023-07-20T09:36:36;32.10;65.70
41953;DHT22;63613;28.200;112.870;2023-07-20T09:39:06;32.10;65.70
41953;DHT22;63613;28.200;112.870;2023-07-20T09:41:42;32.10;65.80
41953;DHT22;63613;28.200;112.870;2023-07-20T09:44:11;32.10;65.80
41953;DHT22;63613;28.200;112.870;2023-07-20T09:46:46;32.10;65.80
41953;DHT22;63613;28.200;112.870;2023-07-20T09:49:14;32.10;65.80
41953;DHT22;63613;28.200;112.870;2023-07-20T09:51:43;32.20;65.70
41953;DHT22;63613;28.200;112.870;2023-07-20T09:54:12;32.10;65.70
41953;DHT22;63613;28.200;112.870;2023-07-20T09:56:40;32.10;65.70
41953;DHT22;63613;28.200;112.870;2023-07-20T09:59:08;32.10;65.60
41953;DHT22;63613;28.200;112.870;2023-07-20T10:01:35;32.10;65.70
41953;DHT22;63613;28.200;112.870;2023-07-20T10:04:07;32.10;65.60
41953;DHT22;63613;28.200;112.870;2023-07-20T10:06:42;32.10;65.60
41953;DHT22;63613;28.200;112.870;2023-07-20T10:09:11;32.10;65.50
41953;DHT22;63613;28.200;112.870;2023-07-20T10:11:45;32.10;65.50
41953;DHT22;63613;28.200;112.870;2023-07-20T10:14:15;32.10;65.50
41953;DHT22;63613;28.200;112.870;2023-07-20T10:16:50;32.10;65.50
41953;DHT22;63613;28.200;112.870;2023-07-20T10:22:19;32.10;65.50
41953;DHT22;63613;28.200;112.870;2023-07-20T10:24:49;32.00;65.50
41953;DHT22;63613;28.200;112.870;2023-07-20T10:27:18;32.10;65.50
41953;DHT22;63613;28.200;112.870;2023-07-20T10:29:45;32.10;65.50
41953;DHT22;63613;28.200;112.870;2023-07-20T10:32:12;32.00;65.50
41953;DHT22;63613;28.200;112.870;2023-07-20T10:34:40;32.00;65.50
41953;DHT22;63613;28.200;112.870;2023-07-20T10:37:10;32.00;65.60
41953;DHT22;63613;28.200;112.870;2023-07-20T10:39:38;32.00;65.60
41953;DHT22;63613;28.200;112.870;2023-07-20T10:42:11;32.00;65.70
41953;DHT22;63613;28.200;112.870;2023-07-20T10:44:47;32.00;65.70
41953;DHT22;63613;28.200;112.870;2023-07-20T10:47:45;32.00;65.70
41953;DHT22;63613;28.200;112.870;2023-07-20T10:50:12;32.00;65.70
41953;DHT22;63613;28.200;112.870;2023-07-20T10:52:42;32.00;65.70
41953;DHT22;63613;28.200;112.870;2023-07-20T10:55:17;32.00;65.70
41953;DHT22;63613;28.200;112.870;2023-07-20T10:58:13;32.00;65.70
41953;DHT22;63613;28.200;112.870;2023-07-20T11:00:58;32.00;65.80
41953;DHT22;63613;28.200;112.870;2023-07-20T11:03:34;31.90;65.80
41953;DHT22;63613;28.200;112.870;2023-07-20T11:09:07;31.90;65.80
41953;DHT22;63613;28.200;112.870;2023-07-20T11:11:38;31.90;66.00
41953;DHT22;63613;28.200;112.870;2023-07-20T11:14:09;31.90;66.00
41953;DHT22;63613;28.200;112.870;2023-07-20T11:19:06;31.90;66.10
41953;DHT22;63613;28.200;112.870;2023-07-20T11:21:42;31.90;66.10
41953;DHT22;63613;28.200;112.870;2023-07-20T11:24:09;31.80;66.10
41953;DHT22;63613;28.200;112.870;2023-07-20T11:26:50;31.90;66.10
41953;DHT22;63613;28.200;112.870;2023-07-20T11:29:19;31.80;66.10
41953;DHT22;63613;28.200;112.870;2023-07-20T11:31:47;31.80;66.10
41953;DHT22;63613;28.200;112.870;2023-07-20T11:34:18;31.80;66.20
41953;DHT22;63613;28.200;112.870;2023-07-20T11:36:51;31.80;66.20
41953;DHT22;63613;28.200;112.870;2023-07-20T11:39:19;31.80;66.20
41953;DHT22;63613;28.200;112.870;2023-07-20T11:41:56;31.80;66.30
41953;DHT22;63613;28.200;112.870;2023-07-20T11:44:29;31.80;66.30
41953;DHT22;63613;28.200;112.870;2023-07-20T11:47:11;31.70;66.40
41953;DHT22;63613;28.200;112.870;2023-07-20T11:49:42;31.80;66.50
41953;DHT22;63613;28.200;112.870;2023-07-20T11:52:11;31.70;66.40
41953;DHT22;63613;28.200;112.870;2023-07-20T11:54:42;31.70;66.50
41953;DHT22;63613;28.200;112.870;2023-07-20T11:57:18;31.70;66.60
41953;DHT22;63613;28.200;112.870;2023-07-20T11:59:55;31.70;66.50
41953;DHT22;63613;28.200;112.870;2023-07-20T12:02:27;31.70;66.50
41953;DHT22;63613;28.200;112.870;2023-07-20T12:04:55;31.70;66.60
41953;DHT22;63613;28.200;112.870;2023-07-20T12:07:22;31.70;66.70
41953;DHT22;63613;28.200;112.870;2023-07-20T12:13:02;31.70;66.70
41953;DHT22;63613;28.200;112.870;2023-07-20T12:15:30;31.70;66.80
41953;DHT22;63613;28.200;112.870;2023-07-20T12:18:02;31.70;66.80
41953;DHT22;63613;28.200;112.870;2023-07-20T12:20:39;31.70;66.90
41953;DHT22;63613;28.200;112.870;2023-07-20T12:23:11;31.70;67.00
41953;DHT22;63613;28.200;112.870;2023-07-20T12:25:46;31.70;67.00
41953;DHT22;63613;28.200;112.870;2023-07-20T12:28:17;31.70;67.10
41953;DHT22;63613;28.200;112.870;2023-07-20T12:30:47;31.70;67.10
41953;DHT22;63613;28.200;112.870;2023-07-20T12:33:22;31.70;67.20
41953;DHT22;63613;28.200;112.870;2023-07-20T12:35:50;31.70;67.40
41953;DHT22;63613;28.200;112.870;2023-07-20T12:38:17;31.70;67.50
41953;DHT22;63613;28.200;112.870;2023-07-20T12:40:50;31.60;67.50
41953;DHT22;63613;28.200;112.870;2023-07-20T12:43:17;31.70;67.60
41953;DHT22;63613;28.200;112.870;2023-07-20T12:45:47;31.70;67.90
41953;DHT22;63613;28.200;112.870;2023-07-20T12:48:14;31.60;67.90
41953;DHT22;63613;28.200;112.870;2023-07-20T12:50:43;31.70;68.10
41953;DHT22;63613;28.200;112.870;2023-07-20T12:53:10;31.60;68.40
41953;DHT22;63613;28.200;112.870;2023-07-20T12:55:40;31.60;68.30
41953;DHT22;63613;28.200;112.870;2023-07-20T12:58:07;31.60;68.60
41953;DHT22;63613;28.200;112.870;2023-07-20T13:00:55;31.60;68.60
41953;DHT22;63613;28.200;112.870;2023-07-20T13:03:22;31.60;68.50
41953;DHT22;63613;28.200;112.870;2023-07-20T13:05:49;31.60;68.40
41953;DHT22;63613;28.200;112.870;2023-07-20T13:08:19;31.60;68.40
41953;DHT22;63613;28.200;112.870;2023-07-20T13:10:55;31.60;68.30
41953;DHT22;63613;28.200;112.870;2023-07-20T13:13:23;31.60;68.20
41953;DHT22;63613;28.200;112.870;2023-07-20T13:15:50;31.60;68.20
41953;DHT22;63613;28.200;112.870;2023-07-20T13:18:17;31.60;68.20
41953;DHT22;63613;28.200;112.870;2023-07-20T13:21:04;31.60;68.10
41953;DHT22;63613;28.200;112.870;2023-07-20T13:23:37;31.60;68.50
41953;DHT22;63613;28.200;112.870;2023-07-20T13:26:05;31.60;68.60
41953;DHT22;63613;28.200;112.870;2023-07-20T13:28:33;31.60;68.60
41953;DHT22;63613;28.200;112.870;2023-07-20T13:31:03;31.60;68.70
41953;DHT22;63613;28.200;112.870;2023-07-20T13:33:30;31.60;68.90
41953;DHT22;63613;28.200;112.870;2023-07-20T13:35:58;31.60;69.20
41953;DHT22;63613;28.200;112.870;2023-07-20T13:38:29;31.60;69.20
41953;DHT22;63613;28.200;112.870;2023-07-20T13:40:58;31.60;69.30
41953;DHT22;63613;28.200;112.870;2023-07-20T13:43:44;31.60;69.50
41953;DHT22;63613;28.200;112.870;2023-07-20T13:46:11;31.60;69.60
41953;DHT22;63613;28.200;112.870;2023-07-20T13:48:39;31.50;69.70
41953;DHT22;63613;28.200;112.870;2023-07-20T13:51:06;31.50;69.90
41953;DHT22;63613;28.200;112.870;2023-07-20T13:53:33;31.60;70.00
41953;DHT22;63613;28.200;112.870;2023-07-20T13:56:03;31.60;70.10
41953;DHT22;63613;28.200;112.870;2023-07-20T13:58:30;31.60;70.20
41953;DHT22;63613;28.200;112.870;2023-07-20T14:00:57;31.50;70.30
41953;DHT22;63613;28.200;112.870;2023-07-20T14:03:24;31.60;70.50
41953;DHT22;63613;28.200;112.870;2023-07-20T14:05:54;31.60;70.50
41953;DHT22;63613;28.200;112.870;2023-07-20T14:08:21;31.60;70.60
41953;DHT22;63613;28.200;112.870;2023-07-20T14:10:49;31.50;70.60
41953;DHT22;63613;28.200;112.870;2023-07-20T14:13:18;31.50;70.70
41953;DHT22;63613;28.200;112.870;2023-07-20T14:15:46;31.50;70.80
41953;DHT22;63613;28.200;112.870;2023-07-20T14:18:13;31.60;70.90
41953;DHT22;63613;28.200;112.870;2023-07-20T14:20:40;31.50;71.00
41953;DHT22;63613;28.200;112.870;2023-07-20T14:23:07;31.50;71.10
41953;DHT22;63613;28.200;112.870;2023-07-20T14:25:34;31.50;71.20
41953;DHT22;63613;28.200;112.870;2023-07-20T14:28:03;31.50;71.20
41953;DHT22;63613;28.200;112.870;2023-07-20T14:30:29;31.50;71.30
41953;DHT22;63613;28.200;112.870;2023-07-20T14:32:56;31.50;71.30
41953;DHT22;63613;28.200;112.870;2023-07-20T14:35:23;31.60;71.50
41953;DHT22;63613;28.200;112.870;2023-07-20T14:37:51;31.50;71.60
41953;DHT22;63613;28.200;112.870;2023-07-20T14:40:19;31.50;71.60
41953;DHT22;63613;28.200;112.870;2023-07-20T14:42:49;31.50;71.70
41953;DHT22;63613;28.200;112.870;2023-07-20T14:45:18;31.50;71.70
41953;DHT22;63613;28.200;112.870;2023-07-20T14:47:49;31.50;71.70
41953;DHT22;63613;28.200;112.870;2023-07-20T14:50:22;31.50;71.70
41953;DHT22;63613;28.200;112.870;2023-07-20T14:52:51;31.50;71.70
41953;DHT22;63613;28.200;112.870;2023-07-20T14:55:20;31.50;71.80
41953;DHT22;63613;28.200;112.870;2023-07-20T14:57:51;31.50;71.70
41953;DHT22;63613;28.200;112.870;2023-07-20T15:00:18;31.50;71.70
41953;DHT22;63613;28.200;112.870;2023-07-20T15:02:46;31.50;71.80
41953;DHT22;63613;28.200;112.870;2023-07-20T15:05:23;31.50;72.00
41953;DHT22;63613;28.200;112.870;2023-07-20T15:07:51;31.50;72.00
41953;DHT22;63613;28.200;112.870;2023-07-20T15:10:17;31.50;72.00
41953;DHT22;63613;28.200;112.870;2023-07-20T15:12:44;31.50;72.10
41953;DHT22;63613;28.200;112.870;2023-07-20T15:15:15;31.50;72.20
41953;DHT22;63613;28.200;112.870;2023-07-20T15:17:44;31.50;72.30
41953;DHT22;63613;28.200;112.870;2023-07-20T15:20:19;31.50;72.40
41953;DHT22;63613;28.200;112.870;2023-07-20T15:22:47;31.50;72.40
41953;DHT22;63613;28.200;112.870;2023-07-20T15:25:16;31.50;72.40
41953;DHT22;63613;28.200;112.870;2023-07-20T15:27:45;31.50;72.30
41953;DHT22;63613;28.200;112.870;2023-07-20T15:30:15;31.50;72.40
41953;DHT22;63613;28.200;112.870;2023-07-20T15:32:48;31.50;72.50
41953;DHT22;63613;28.200;112.870;2023-07-20T15:35:15;31.50;72.60
41953;DHT22;63613;28.200;112.870;2023-07-20T15:37:43;31.50;72.60
41953;DHT22;63613;28.200;112.870;2023-07-20T15:40:14;31.50;72.60
41953;DHT22;63613;28.200;112.870;2023-07-20T15:42:43;31.50;72.60
41953;DHT22;63613;28.200;112.870;2023-07-20T15:45:13;31.50;72.80